TAF and METAR

Could not understand the following METAR

NVSG 141500Z AUTO /////KT //// // NCD 26/24 Q1011 RMK NIL

TAF for Longana Airport

TAF NVSG 141000Z 1412/1512 12005KT 9999 FEW020 BKN100 INTER 1412/1418 8000 SHRA BKN018 OVC040
Report created 14. des 11:00

between 14. des 13:00 - 15. des 13:00

wind 5 knots from ESE (120°) visibility > 10km some clouds (~25% cover) at 2000 feet broken clouds (~75% cover) at 10000 feet
Longana Airport in Vanuatu at 51m

Latest 5 airports